createdAt,value
2022-11-17T00:01:24.416Z,74.55
2022-11-17T00:03:51.713Z,75.03
2022-11-17T00:06:20.479Z,74.79
2022-11-17T00:08:47.881Z,74.04
2022-11-17T00:11:14.852Z,74.55
2022-11-17T00:14:00.176Z,73.95
2022-11-17T00:16:26.834Z,74.81
2022-11-17T00:19:12.311Z,75.20
2022-11-17T00:21:38.990Z,75.10
2022-11-17T00:24:06.825Z,74.89
2022-11-17T00:26:35.809Z,74.01
2022-11-17T00:29:05.091Z,73.04
2022-11-17T00:31:52.561Z,74.78
2022-11-17T00:34:21.183Z,74.24
2022-11-17T00:36:52.511Z,73.21
2022-11-17T00:39:21.279Z,73.40
2022-11-17T00:41:47.989Z,73.55
2022-11-17T00:44:15.231Z,74.33
2022-11-17T00:46:43.037Z,73.01
2022-11-17T00:49:11.363Z,73.62
2022-11-17T00:51:38.745Z,73.49
2022-11-17T00:54:07.024Z,73.98
2022-11-17T00:56:34.211Z,73.74
2022-11-17T00:59:00.963Z,73.45
2022-11-17T01:01:28.119Z,73.36
2022-11-17T01:04:02.864Z,73.55
2022-11-17T01:06:44.952Z,73.46
2022-11-17T01:09:23.435Z,73.27
2022-11-17T01:11:52.381Z,73.08
2022-11-17T01:14:27.894Z,72.74
2022-11-17T01:16:54.813Z,72.01
2022-11-17T01:19:23.121Z,72.80
2022-11-17T01:21:50.297Z,72.83
2022-11-17T01:24:17.751Z,73.52
2022-11-17T01:26:45.500Z,72.54
2022-11-17T01:29:15.052Z,73.13
2022-11-17T01:31:46.010Z,73.34
2022-11-17T01:34:13.326Z,74.85
2022-11-17T01:37:01.282Z,74.61
2022-11-17T01:39:29.358Z,73.25
2022-11-17T01:41:57.132Z,73.28
2022-11-17T01:44:36.184Z,73.92
2022-11-17T01:47:04.411Z,72.80
2022-11-17T01:49:31.842Z,72.50
2022-11-17T01:52:07.265Z,73.14
2022-11-17T01:54:40.409Z,73.07
2022-11-17T01:57:14.549Z,73.06
2022-11-17T01:59:50.686Z,73.49
2022-11-17T02:02:17.717Z,73.89
2022-11-17T02:04:50.404Z,73.17
2022-11-17T02:07:24.641Z,73.07
2022-11-17T02:09:53.590Z,72.31
2022-11-17T02:12:22.203Z,73.28
2022-11-17T02:14:49.716Z,73.88
2022-11-17T02:17:18.176Z,72.46
2022-11-17T02:20:03.016Z,73.18
2022-11-17T02:23:00.184Z,72.04
2022-11-17T02:25:33.723Z,71.72
2022-11-17T02:28:21.973Z,72.23
2022-11-17T02:31:24.070Z,71.00
2022-11-17T02:34:05.176Z,71.32
2022-11-17T02:36:44.902Z,71.45
2022-11-17T02:39:34.981Z,72.59
2022-11-17T02:42:14.020Z,70.44
2022-11-17T02:44:57.868Z,70.51
2022-11-17T02:47:29.705Z,71.63
2022-11-17T02:50:03.210Z,72.24
2022-11-17T02:52:31.066Z,71.94
2022-11-17T02:55:09.938Z,71.64
2022-11-17T02:57:39.465Z,71.86
2022-11-17T03:00:08.003Z,73.20
2022-11-17T03:03:08.466Z,72.69
2022-11-17T03:05:41.966Z,73.70
2022-11-17T03:08:36.809Z,74.10
2022-11-17T03:11:06.969Z,73.71
2022-11-17T03:13:48.486Z,74.77
2022-11-17T03:16:49.953Z,75.14
2022-11-17T03:19:19.553Z,74.55
2022-11-17T03:22:01.127Z,75.41
2022-11-17T03:24:33.661Z,75.25
2022-11-17T03:27:08.195Z,76.03
2022-11-17T03:29:39.282Z,75.98
2022-11-17T03:32:08.020Z,75.88
2022-11-17T03:34:41.132Z,76.22
2022-11-17T03:37:12.173Z,76.10
2022-11-17T03:39:43.270Z,76.17
2022-11-17T03:42:18.705Z,77.32
2022-11-17T03:44:50.874Z,78.55
2022-11-17T03:47:21.034Z,78.32
2022-11-17T03:50:16.489Z,78.01
2022-11-17T03:52:44.595Z,77.76
2022-11-17T03:55:12.221Z,78.22
2022-11-17T03:57:52.678Z,78.23
2022-11-17T04:00:23.542Z,77.82
2022-11-17T04:02:55.735Z,79.20
2022-11-17T04:05:22.805Z,78.97
2022-11-17T04:07:49.528Z,79.13
2022-11-17T04:10:21.951Z,80.82
2022-11-17T04:13:08.167Z,79.95
2022-11-17T04:15:55.277Z,80.95
2022-11-17T04:18:23.420Z,80.83
2022-11-17T04:20:52.250Z,81.61
2022-11-17T04:23:19.328Z,81.94
2022-11-17T04:26:12.591Z,82.23
2022-11-17T04:28:46.627Z,83.99
2022-11-17T04:31:23.590Z,84.14
2022-11-17T04:33:55.763Z,84.67
2022-11-17T04:36:26.901Z,84.63
2022-11-17T04:38:56.664Z,84.26
2022-11-17T04:41:43.965Z,85.96
2022-11-17T04:44:13.365Z,86.05
2022-11-17T04:46:41.272Z,87.44
2022-11-17T04:49:08.354Z,85.75
2022-11-17T04:51:35.882Z,84.44
2022-11-17T04:54:04.290Z,84.24
2022-11-17T04:56:31.435Z,85.37
2022-11-17T04:58:58.449Z,85.33
2022-11-17T05:01:26.479Z,85.43
2022-11-17T05:03:55.254Z,87.13
2022-11-17T05:06:26.026Z,86.77
2022-11-17T05:08:57.214Z,86.42
2022-11-17T05:11:45.350Z,87.61
2022-11-17T05:14:13.716Z,87.63
2022-11-17T05:17:00.523Z,86.98
2022-11-17T05:19:32.528Z,87.10
2022-11-17T05:21:59.718Z,87.05
2022-11-17T05:24:26.743Z,86.31
2022-11-17T05:26:54.142Z,86.50
2022-11-17T05:29:22.731Z,85.71
2022-11-17T05:31:49.513Z,85.78
2022-11-17T05:34:17.785Z,86.53
2022-11-17T05:36:44.814Z,85.75
2022-11-17T05:39:11.530Z,87.26
2022-11-17T05:41:39.788Z,86.46
2022-11-17T05:44:06.417Z,87.67
2022-11-17T05:46:33.247Z,87.37
2022-11-17T05:49:00.147Z,88.01
2022-11-17T05:51:27.015Z,88.47
2022-11-17T05:53:53.663Z,89.15
2022-11-17T05:56:35.586Z,87.40
2022-11-17T05:59:28.287Z,87.06
2022-11-17T06:02:00.805Z,87.41
2022-11-17T06:04:28.560Z,87.62
2022-11-17T06:06:59.333Z,86.18
2022-11-17T06:09:32.728Z,88.02
2022-11-17T06:12:05.306Z,87.45
2022-11-17T06:14:33.406Z,88.49
2022-11-17T06:17:05.032Z,87.22
2022-11-17T06:19:39.607Z,86.83
2022-11-17T06:22:14.566Z,88.19
2022-11-17T06:24:44.653Z,88.30
2022-11-17T06:27:15.978Z,89.00
2022-11-17T06:29:44.835Z,89.33
2022-11-17T06:32:14.176Z,89.85
2022-11-17T06:34:42.859Z,90.68
2022-11-17T06:37:11.309Z,91.11
2022-11-17T06:39:38.064Z,92.33
2022-11-17T06:42:04.711Z,93.12
2022-11-17T06:44:31.377Z,91.78
2022-11-17T06:46:57.975Z,91.29
2022-11-17T06:49:24.838Z,91.13
2022-11-17T06:51:52.173Z,91.14
2022-11-17T06:54:21.760Z,91.37
2022-11-17T06:56:49.676Z,89.69
2022-11-17T06:59:17.069Z,90.94
2022-11-17T07:01:43.845Z,90.38
2022-11-17T07:04:10.420Z,90.49
2022-11-17T07:06:37.457Z,90.71
2022-11-17T07:09:05.347Z,91.85
2022-11-17T07:11:36.152Z,91.30
2022-11-17T07:14:03.519Z,91.57
2022-11-17T07:16:31.008Z,90.89
2022-11-17T07:18:59.210Z,90.72
2022-11-17T07:21:26.121Z,90.56
2022-11-17T07:23:53.077Z,88.72
2022-11-17T07:26:19.778Z,87.97
2022-11-17T07:28:47.631Z,89.47
2022-11-17T07:31:14.446Z,87.49
2022-11-17T07:33:41.126Z,87.04
2022-11-17T07:36:10.642Z,87.70
2022-11-17T07:38:39.396Z,89.80
2022-11-17T07:41:08.713Z,90.17
2022-11-17T07:43:36.249Z,90.49
2022-11-17T07:46:07.249Z,89.00
2022-11-17T07:48:34.971Z,87.61
2022-11-17T07:51:03.388Z,86.11
2022-11-17T07:53:31.644Z,85.47
2022-11-17T07:56:05.197Z,85.40
2022-11-17T07:58:32.972Z,86.79
2022-11-17T08:01:04.936Z,86.09
2022-11-17T08:03:31.679Z,85.58
2022-11-17T08:06:05.181Z,85.74
2022-11-17T08:08:32.558Z,86.28
2022-11-17T08:11:05.148Z,86.53
2022-11-17T08:13:32.790Z,85.91
2022-11-17T08:15:59.809Z,86.49
2022-11-17T08:18:27.290Z,85.95
2022-11-17T08:21:04.731Z,86.78
2022-11-17T08:23:32.073Z,86.92
2022-11-17T08:25:58.994Z,87.31
2022-11-17T08:28:25.762Z,89.29
2022-11-17T08:30:52.487Z,88.69
2022-11-17T08:33:19.129Z,90.73
2022-11-17T08:35:45.739Z,91.45
2022-11-17T08:38:15.188Z,91.69
2022-11-17T08:40:42.543Z,92.18
2022-11-17T08:43:09.327Z,91.49
2022-11-17T08:45:36.297Z,90.50
2022-11-17T08:48:04.008Z,89.17
2022-11-17T08:50:30.660Z,89.66
2022-11-17T08:52:57.261Z,89.71
2022-11-17T08:55:26.159Z,89.56
2022-11-17T08:57:52.971Z,88.18
2022-11-17T09:00:21.866Z,87.33
2022-11-17T09:02:48.906Z,86.51
2022-11-17T09:05:15.587Z,87.42
2022-11-17T09:07:42.388Z,87.70
2022-11-17T09:10:10.957Z,86.83
2022-11-17T09:12:37.817Z,88.28
2022-11-17T09:15:05.449Z,86.34
2022-11-17T09:17:32.888Z,85.77
2022-11-17T09:20:00.009Z,84.80
2022-11-17T09:22:27.752Z,83.88
2022-11-17T09:24:55.745Z,82.77
2022-11-17T09:27:22.809Z,82.31
2022-11-17T09:29:49.428Z,81.50
2022-11-17T09:32:16.890Z,81.76
2022-11-17T09:34:44.215Z,81.85
2022-11-17T09:37:10.915Z,82.73
2022-11-17T09:39:37.641Z,81.89
2022-11-17T09:42:04.742Z,83.05
2022-11-17T09:44:44.798Z,82.00
2022-11-17T09:47:34.720Z,82.87
2022-11-17T09:50:16.065Z,82.34
2022-11-17T09:53:19.347Z,82.28
2022-11-17T09:55:50.412Z,81.92
2022-11-17T09:58:57.723Z,83.09
2022-11-17T10:01:29.022Z,82.65
2022-11-17T10:04:00.171Z,80.32
2022-11-17T10:06:29.346Z,79.08
2022-11-17T10:09:26.217Z,75.85
2022-11-17T10:11:57.179Z,75.82
2022-11-17T10:14:28.589Z,76.92
2022-11-17T10:16:58.178Z,78.55
2022-11-17T10:19:27.433Z,78.67
2022-11-17T10:22:06.289Z,79.25
2022-11-17T10:24:37.141Z,78.71
2022-11-17T10:27:07.002Z,79.97
2022-11-17T10:32:08.643Z,79.86
2022-11-17T10:34:41.488Z,78.75
2022-11-17T10:37:14.616Z,77.87
2022-11-17T10:39:43.350Z,78.42
2022-11-17T10:42:23.227Z,78.59
2022-11-17T10:44:56.268Z,78.44
2022-11-17T10:47:31.023Z,79.05
2022-11-17T10:50:19.864Z,76.82
2022-11-17T10:52:48.118Z,78.93
2022-11-17T10:55:28.498Z,78.77
2022-11-17T10:58:04.383Z,80.21
2022-11-17T11:00:34.082Z,79.07
2022-11-17T11:03:18.776Z,78.66
2022-11-17T11:05:55.493Z,78.94
2022-11-17T11:08:25.135Z,77.74
2022-11-17T11:10:56.588Z,78.76
2022-11-17T11:13:35.659Z,77.69
2022-11-17T11:16:02.836Z,77.77
2022-11-17T11:18:31.032Z,76.70
2022-11-17T11:21:24.009Z,75.85
2022-11-17T11:24:14.302Z,76.42
2022-11-17T11:27:16.173Z,75.99
2022-11-17T11:30:03.195Z,74.98
2022-11-17T11:32:47.737Z,74.50
2022-11-17T11:35:32.712Z,74.29
2022-11-17T11:38:06.091Z,73.45
2022-11-17T11:40:41.448Z,72.27
2022-11-17T11:43:14.458Z,72.07
2022-11-17T11:46:18.327Z,70.75
2022-11-17T11:48:47.908Z,70.92
2022-11-17T11:51:19.535Z,71.25
2022-11-17T11:54:24.631Z,70.02
2022-11-17T11:56:52.117Z,70.86
2022-11-17T11:59:22.142Z,71.54
2022-11-17T12:02:16.964Z,71.45
2022-11-17T12:05:07.141Z,71.26
2022-11-17T12:07:56.127Z,71.36
2022-11-17T12:10:47.263Z,72.14
2022-11-17T12:13:18.181Z,72.55
2022-11-17T12:15:45.230Z,73.92
2022-11-17T12:18:28.997Z,73.99
2022-11-17T12:21:11.773Z,73.37
2022-11-17T12:24:17.812Z,73.67
2022-11-17T12:26:44.938Z,72.87
2022-11-17T12:29:26.985Z,71.71
2022-11-17T12:31:59.836Z,71.31
2022-11-17T12:34:30.719Z,70.84
2022-11-17T12:37:21.705Z,71.11
2022-11-17T12:39:55.282Z,68.86
2022-11-17T12:42:29.011Z,68.84
2022-11-17T12:45:00.293Z,68.76
2022-11-17T12:47:31.789Z,68.89
2022-11-17T12:50:17.260Z,68.62
2022-11-17T12:52:43.916Z,68.91
2022-11-17T12:55:23.058Z,69.20
2022-11-17T12:57:58.215Z,68.66
2022-11-17T13:00:25.898Z,68.79
2022-11-17T13:03:12.095Z,68.48
2022-11-17T13:05:38.996Z,69.00
2022-11-17T13:08:14.851Z,67.63
2022-11-17T13:10:44.982Z,67.14
2022-11-17T13:13:19.850Z,66.97
2022-11-17T13:15:52.431Z,66.99
2022-11-17T13:18:27.863Z,66.98
2022-11-17T13:20:54.601Z,67.36
2022-11-17T13:23:25.936Z,67.57
2022-11-17T13:26:20.758Z,67.77
2022-11-17T13:28:49.439Z,68.99
2022-11-17T13:31:25.508Z,69.83
2022-11-17T13:34:21.070Z,69.87
2022-11-17T13:36:55.823Z,71.55
2022-11-17T13:39:27.131Z,71.90
2022-11-17T13:41:55.356Z,73.78
2022-11-17T13:44:29.296Z,75.24
2022-11-17T13:46:56.077Z,76.87
2022-11-17T13:49:36.878Z,76.13
2022-11-17T13:52:05.342Z,77.62
2022-11-17T13:54:35.341Z,76.55
2022-11-17T13:57:08.605Z,77.94
2022-11-17T13:59:39.561Z,80.07
2022-11-17T14:02:21.415Z,81.84
2022-11-17T14:05:19.768Z,83.13
2022-11-17T14:07:46.851Z,84.01
2022-11-17T14:10:19.596Z,83.43
2022-11-17T14:12:51.274Z,82.02
2022-11-17T14:15:25.074Z,80.22
2022-11-17T14:17:56.375Z,80.60
2022-11-17T14:20:26.107Z,80.53
2022-11-17T14:23:05.839Z,82.01
2022-11-17T14:25:40.830Z,80.97
2022-11-17T14:28:15.464Z,81.71
2022-11-17T14:30:43.589Z,82.60
2022-11-17T14:33:13.593Z,82.71
2022-11-17T14:35:41.289Z,83.18
2022-11-17T14:38:17.788Z,84.00
2022-11-17T14:40:44.691Z,84.79
2022-11-17T14:43:11.960Z,85.15
2022-11-17T14:45:38.766Z,85.83
2022-11-17T14:48:08.780Z,85.99
2022-11-17T14:50:35.597Z,85.66
2022-11-17T14:53:02.211Z,86.54
2022-11-17T14:55:28.796Z,86.69
2022-11-17T14:57:55.510Z,86.25
2022-11-17T15:00:22.305Z,87.76
2022-11-17T15:02:49.407Z,85.99
2022-11-17T15:05:16.229Z,87.45
2022-11-17T15:07:44.125Z,89.41
2022-11-17T15:10:13.994Z,90.12
2022-11-17T15:12:41.552Z,89.77
2022-11-17T15:15:08.817Z,89.97
2022-11-17T15:17:35.469Z,89.69
2022-11-17T15:20:02.265Z,90.63
2022-11-17T15:22:30.109Z,90.33
2022-11-17T15:24:56.804Z,91.11
2022-11-17T15:27:23.745Z,92.45
2022-11-17T15:29:50.464Z,92.41
2022-11-17T15:32:17.554Z,92.87
2022-11-17T15:34:44.173Z,90.29
2022-11-17T15:37:10.858Z,88.18
2022-11-17T15:39:37.525Z,90.18
2022-11-17T15:42:04.227Z,92.52
2022-11-17T15:44:30.925Z,92.65
2022-11-17T15:46:57.635Z,93.15
2022-11-17T15:49:25.676Z,93.45
2022-11-17T15:51:52.493Z,94.12
2022-11-17T15:54:20.973Z,91.61
2022-11-17T15:56:48.599Z,92.12
2022-11-17T15:59:15.541Z,95.02
2022-11-17T16:01:42.910Z,96.29
2022-11-17T16:04:15.846Z,97.35
2022-11-17T16:06:45.108Z,96.87
2022-11-17T16:09:13.079Z,96.88
2022-11-17T16:11:41.264Z,96.46
2022-11-17T16:14:09.457Z,96.76
2022-11-17T16:16:39.631Z,96.36
2022-11-17T16:19:07.090Z,95.72
2022-11-17T16:21:34.046Z,93.80
2022-11-17T16:24:01.970Z,92.89
2022-11-17T16:26:29.923Z,93.46
2022-11-17T16:28:58.999Z,93.39
2022-11-17T16:31:28.748Z,94.16
2022-11-17T16:33:58.642Z,94.09
2022-11-17T16:36:34.348Z,93.94
2022-11-17T16:39:05.772Z,93.64
2022-11-17T16:41:34.969Z,94.40
2022-11-17T16:44:02.810Z,93.78
2022-11-17T16:46:31.558Z,93.70
2022-11-17T16:49:06.811Z,93.54
2022-11-17T16:51:34.811Z,92.75
2022-11-17T16:54:04.142Z,93.03
2022-11-17T16:56:32.041Z,94.19
2022-11-17T16:58:59.276Z,94.22
2022-11-17T17:01:32.267Z,95.69
2022-11-17T17:04:04.729Z,95.04
2022-11-17T17:06:31.456Z,95.51
2022-11-17T17:09:00.245Z,95.55
2022-11-17T17:11:29.152Z,96.17
2022-11-17T17:13:58.979Z,95.20
2022-11-17T17:16:26.070Z,94.77
2022-11-17T17:18:59.468Z,93.15
2022-11-17T17:21:27.236Z,93.41
2022-11-17T17:23:54.018Z,94.29
2022-11-17T17:26:22.992Z,95.25
2022-11-17T17:28:51.829Z,93.90
2022-11-17T17:31:21.980Z,94.77
2022-11-17T17:33:50.488Z,95.30
2022-11-17T17:36:20.105Z,96.58
2022-11-17T17:38:53.364Z,95.76
2022-11-17T17:41:23.334Z,95.27
2022-11-17T17:43:56.718Z,95.86
2022-11-17T17:46:24.512Z,96.50
2022-11-17T17:48:51.205Z,95.23
2022-11-17T17:51:20.181Z,95.91
2022-11-17T17:53:50.396Z,94.63
2022-11-17T17:56:18.997Z,95.42
2022-11-17T17:58:48.702Z,96.79
2022-11-17T18:01:30.972Z,97.33
2022-11-17T18:04:04.279Z,96.58
2022-11-17T18:06:37.313Z,96.85
2022-11-17T18:09:05.490Z,95.93
2022-11-17T18:11:33.204Z,95.35
2022-11-17T18:14:00.504Z,95.73
2022-11-17T18:16:30.006Z,96.23
2022-11-17T18:18:59.372Z,97.03
2022-11-17T18:21:28.632Z,97.46
2022-11-17T18:23:56.770Z,99.02
2022-11-17T18:26:25.829Z,97.85
2022-11-17T18:29:18.332Z,98.31
2022-11-17T18:31:47.568Z,98.85
2022-11-17T18:34:21.078Z,99.38
2022-11-17T18:36:49.168Z,99.58
2022-11-17T18:39:16.552Z,99.92
2022-11-17T18:41:44.063Z,99.95
2022-11-17T18:44:15.379Z,99.95
2022-11-17T18:46:42.104Z,99.75
2022-11-17T18:49:09.006Z,98.68
2022-11-17T18:51:35.853Z,99.52
2022-11-17T18:54:03.709Z,99.35
2022-11-17T18:56:35.758Z,99.13
2022-11-17T18:59:11.054Z,100.00
2022-11-17T19:01:40.410Z,99.83
2022-11-17T19:04:07.460Z,99.36
2022-11-17T19:06:34.498Z,100.00
2022-11-17T19:09:01.458Z,100.00
2022-11-17T19:11:30.725Z,100.00
2022-11-17T19:13:59.158Z,100.00
2022-11-17T19:16:27.586Z,100.00
2022-11-17T19:18:55.976Z,100.00
2022-11-17T19:21:28.197Z,100.00
2022-11-17T19:23:58.224Z,100.00
2022-11-17T19:26:31.029Z,100.00
2022-11-17T19:28:59.888Z,100.00
2022-11-17T19:31:28.098Z,100.00
2022-11-17T19:33:55.878Z,100.00
2022-11-17T19:36:29.275Z,100.00
2022-11-17T19:38:58.021Z,99.97
2022-11-17T19:41:29.917Z,100.00
2022-11-17T19:43:58.912Z,100.00
2022-11-17T19:46:27.101Z,100.00
2022-11-17T19:48:55.229Z,100.00
2022-11-17T19:51:26.814Z,100.00
2022-11-17T19:53:55.787Z,99.32
2022-11-17T19:56:23.993Z,100.00
2022-11-17T19:58:51.451Z,100.00
2022-11-17T20:01:24.122Z,100.00
2022-11-17T20:03:51.533Z,100.00
2022-11-17T20:06:20.628Z,100.00
2022-11-17T20:08:48.308Z,100.00
2022-11-17T20:11:22.688Z,100.00
2022-11-17T20:13:49.822Z,100.00
2022-11-17T20:16:24.326Z,98.83
2022-11-17T20:18:53.980Z,100.00
2022-11-17T20:21:20.901Z,100.00
2022-11-17T20:23:49.231Z,100.00
2022-11-17T20:26:21.204Z,100.00
2022-11-17T20:28:48.068Z,100.00
2022-11-17T20:31:19.966Z,100.00
2022-11-17T20:33:48.380Z,100.00
2022-11-17T20:36:17.624Z,100.00
2022-11-17T20:38:45.004Z,100.00
2022-11-17T20:41:12.645Z,100.00
2022-11-17T20:43:39.385Z,100.00
2022-11-17T20:46:06.127Z,99.92
2022-11-17T20:48:35.231Z,100.00
2022-11-17T20:51:05.012Z,100.00
2022-11-17T20:53:35.343Z,100.00
2022-11-17T20:56:04.471Z,99.30
2022-11-17T20:58:31.423Z,99.58
2022-11-17T21:00:58.597Z,97.51
2022-11-17T21:03:27.589Z,96.84
2022-11-17T21:05:59.673Z,96.30
2022-11-17T21:08:29.420Z,94.70
2022-11-17T21:11:05.388Z,97.87
2022-11-17T21:13:33.736Z,100.00
2022-11-17T21:16:14.643Z,100.00
2022-11-17T21:18:46.917Z,100.00
2022-11-17T21:21:13.783Z,100.00
2022-11-17T21:23:41.392Z,100.00
2022-11-17T21:26:09.710Z,100.00
2022-11-17T21:28:37.442Z,100.00
2022-11-17T21:31:09.330Z,100.00
2022-11-17T21:33:36.908Z,100.00
2022-11-17T21:36:05.815Z,100.00
2022-11-17T21:38:32.761Z,100.00
2022-11-17T21:41:08.980Z,99.12
2022-11-17T21:43:37.075Z,97.30
2022-11-17T21:46:18.605Z,97.18
2022-11-17T21:48:46.752Z,99.03
2022-11-17T21:51:16.284Z,99.07
2022-11-17T21:53:43.978Z,98.70
2022-11-17T21:56:11.492Z,98.15
2022-11-17T21:58:38.533Z,99.20
2022-11-17T22:01:12.797Z,98.86
2022-11-17T22:03:41.916Z,98.40
2022-11-17T22:06:10.268Z,98.24
2022-11-17T22:08:38.904Z,99.04
2022-11-17T22:11:14.473Z,98.32
2022-11-17T22:13:41.769Z,100.00
2022-11-17T22:16:12.356Z,100.00
2022-11-17T22:18:41.177Z,98.98
2022-11-17T22:21:08.439Z,100.00
2022-11-17T22:23:35.160Z,100.00
2022-11-17T22:26:05.021Z,100.00
2022-11-17T22:28:33.447Z,100.00
2022-11-17T22:31:05.716Z,100.00
2022-11-17T22:33:32.814Z,100.00
2022-11-17T22:36:00.490Z,100.00
2022-11-17T22:38:29.409Z,100.00
2022-11-17T22:41:03.506Z,100.00
2022-11-17T22:43:31.263Z,99.34
2022-11-17T22:46:01.977Z,100.00
2022-11-17T22:48:28.949Z,99.09
2022-11-17T22:50:59.993Z,100.00
2022-11-17T22:53:27.512Z,97.22
2022-11-17T22:55:54.324Z,98.91
2022-11-17T22:58:23.897Z,100.00
2022-11-17T23:00:52.985Z,100.00
2022-11-17T23:03:19.652Z,100.00
2022-11-17T23:05:46.380Z,99.42
2022-11-17T23:08:13.019Z,95.67
2022-11-17T23:10:39.752Z,97.85
2022-11-17T23:13:06.494Z,99.50
2022-11-17T23:15:33.090Z,100.00
2022-11-17T23:17:59.737Z,100.00
2022-11-17T23:20:26.359Z,100.00
2022-11-17T23:22:54.046Z,97.84
2022-11-17T23:25:21.116Z,96.28
2022-11-17T23:27:47.882Z,97.04
2022-11-17T23:30:14.487Z,98.48
2022-11-17T23:32:41.044Z,98.18
2022-11-17T23:35:08.213Z,100.00
2022-11-17T23:37:35.206Z,100.00
2022-11-17T23:40:02.239Z,100.00
2022-11-17T23:42:32.408Z,99.49
2022-11-17T23:44:59.738Z,99.76
2022-11-17T23:47:26.430Z,98.25
2022-11-17T23:49:53.073Z,97.82
2022-11-17T23:52:19.754Z,98.97
2022-11-17T23:54:46.414Z,97.77
2022-11-17T23:57:13.034Z,96.25
2022-11-17T23:59:40.270Z,97.21
